sensor_id;sensor_type;location;lat;lon;timestamp;P1;durP1;ratioP1;P2;durP2;ratioP2
65583;SDS011;62116;43.582;1.470;2022-12-29T00:00:00;17.30;;;10.10;;
65583;SDS011;62116;43.582;1.470;2022-12-29T00:02:26;17.17;;;10.70;;
65583;SDS011;62116;43.582;1.470;2022-12-29T00:04:52;17.63;;;10.77;;
65583;SDS011;62116;43.582;1.470;2022-12-29T00:07:17;21.65;;;10.20;;
65583;SDS011;62116;43.582;1.470;2022-12-29T00:09:43;17.33;;;10.18;;
65583;SDS011;62116;43.582;1.470;2022-12-29T00:12:09;18.00;;;10.60;;
65583;SDS011;62116;43.582;1.470;2022-12-29T00:14:34;19.25;;;10.73;;
65583;SDS011;62116;43.582;1.470;2022-12-29T00:17:18;18.48;;;10.55;;
65583;SDS011;62116;43.582;1.470;2022-12-29T00:19:43;17.13;;;10.07;;
65583;SDS011;62116;43.582;1.470;2022-12-29T00:22:27;20.88;;;10.00;;
65583;SDS011;62116;43.582;1.470;2022-12-29T00:25:11;16.92;;;9.70;;
65583;SDS011;62116;43.582;1.470;2022-12-29T00:27:56;17.35;;;10.13;;
65583;SDS011;62116;43.582;1.470;2022-12-29T00:30:40;20.23;;;10.02;;
65583;SDS011;62116;43.582;1.470;2022-12-29T00:33:31;18.17;;;9.57;;
65583;SDS011;62116;43.582;1.470;2022-12-29T00:36:23;17.40;;;9.32;;
65583;SDS011;62116;43.582;1.470;2022-12-29T00:38:55;15.43;;;9.05;;
65583;SDS011;62116;43.582;1.470;2022-12-29T00:41:42;14.32;;;8.93;;
65583;SDS011;62116;43.582;1.470;2022-12-29T00:44:26;13.65;;;8.43;;
65583;SDS011;62116;43.582;1.470;2022-12-29T00:46:52;15.23;;;8.80;;
65583;SDS011;62116;43.582;1.470;2022-12-29T00:49:17;13.52;;;7.85;;
65583;SDS011;62116;43.582;1.470;2022-12-29T00:52:01;15.43;;;8.70;;
65583;SDS011;62116;43.582;1.470;2022-12-29T00:54:39;15.68;;;8.85;;
65583;SDS011;62116;43.582;1.470;2022-12-29T00:57:06;15.05;;;8.77;;
65583;SDS011;62116;43.582;1.470;2022-12-29T00:59:34;13.75;;;8.70;;
65583;SDS011;62116;43.582;1.470;2022-12-29T01:02:04;14.63;;;8.60;;
65583;SDS011;62116;43.582;1.470;2022-12-29T01:04:30;14.63;;;8.45;;
65583;SDS011;62116;43.582;1.470;2022-12-29T01:06:55;17.05;;;9.10;;
65583;SDS011;62116;43.582;1.470;2022-12-29T01:09:21;15.10;;;9.07;;
65583;SDS011;62116;43.582;1.470;2022-12-29T01:12:05;15.32;;;8.57;;
65583;SDS011;62116;43.582;1.470;2022-12-29T01:14:32;15.00;;;8.98;;
65583;SDS011;62116;43.582;1.470;2022-12-29T01:16:57;16.65;;;8.95;;
65583;SDS011;62116;43.582;1.470;2022-12-29T01:19:24;14.65;;;8.45;;
65583;SDS011;62116;43.582;1.470;2022-12-29T01:21:50;16.67;;;8.98;;
65583;SDS011;62116;43.582;1.470;2022-12-29T01:24:16;16.48;;;8.55;;
65583;SDS011;62116;43.582;1.470;2022-12-29T01:26:43;17.55;;;8.50;;
65583;SDS011;62116;43.582;1.470;2022-12-29T01:29:08;19.65;;;9.05;;
65583;SDS011;62116;43.582;1.470;2022-12-29T01:31:34;15.45;;;8.95;;
65583;SDS011;62116;43.582;1.470;2022-12-29T01:34:00;16.48;;;8.90;;
65583;SDS011;62116;43.582;1.470;2022-12-29T01:36:25;16.15;;;8.60;;
65583;SDS011;62116;43.582;1.470;2022-12-29T01:38:51;16.17;;;8.77;;
65583;SDS011;62116;43.582;1.470;2022-12-29T01:41:16;18.98;;;8.68;;
65583;SDS011;62116;43.582;1.470;2022-12-29T01:43:46;15.30;;;8.52;;
65583;SDS011;62116;43.582;1.470;2022-12-29T01:46:32;16.52;;;7.90;;
65583;SDS011;62116;43.582;1.470;2022-12-29T01:51:43;14.07;;;8.57;;
65583;SDS011;62116;43.582;1.470;2022-12-29T01:54:22;15.25;;;8.25;;
65583;SDS011;62116;43.582;1.470;2022-12-29T01:57:05;15.38;;;8.60;;
65583;SDS011;62116;43.582;1.470;2022-12-29T01:59:36;15.77;;;7.97;;
65583;SDS011;62116;43.582;1.470;2022-12-29T02:02:07;15.63;;;8.30;;
65583;SDS011;62116;43.582;1.470;2022-12-29T02:04:33;13.75;;;7.95;;
65583;SDS011;62116;43.582;1.470;2022-12-29T02:07:01;17.13;;;8.52;;
65583;SDS011;62116;43.582;1.470;2022-12-29T02:09:29;16.83;;;8.20;;
65583;SDS011;62116;43.582;1.470;2022-12-29T02:11:55;16.23;;;8.00;;
65583;SDS011;62116;43.582;1.470;2022-12-29T02:14:22;18.52;;;8.18;;
65583;SDS011;62116;43.582;1.470;2022-12-29T02:22:34;16.58;;;7.65;;
65583;SDS011;62116;43.582;1.470;2022-12-29T02:30:34;18.88;;;7.78;;
65583;SDS011;62116;43.582;1.470;2022-12-29T02:33:05;13.88;;;7.60;;
65583;SDS011;62116;43.582;1.470;2022-12-29T02:43:50;13.63;;;7.47;;
65583;SDS011;62116;43.582;1.470;2022-12-29T02:46:28;14.20;;;7.53;;
65583;SDS011;62116;43.582;1.470;2022-12-29T02:49:06;13.52;;;7.15;;
65583;SDS011;62116;43.582;1.470;2022-12-29T02:54:31;17.25;;;7.70;;
65583;SDS011;62116;43.582;1.470;2022-12-29T02:59:47;14.75;;;7.70;;
65583;SDS011;62116;43.582;1.470;2022-12-29T03:08:06;11.40;;;7.30;;
65583;SDS011;62116;43.582;1.470;2022-12-29T03:16:42;15.02;;;7.53;;
65583;SDS011;62116;43.582;1.470;2022-12-29T03:21:57;17.10;;;7.88;;
65583;SDS011;62116;43.582;1.470;2022-12-29T03:24:45;19.77;;;8.32;;
65583;SDS011;62116;43.582;1.470;2022-12-29T03:27:15;17.20;;;8.32;;
65583;SDS011;62116;43.582;1.470;2022-12-29T03:29:52;19.92;;;8.93;;
65583;SDS011;62116;43.582;1.470;2022-12-29T03:32:23;17.48;;;8.43;;
65583;SDS011;62116;43.582;1.470;2022-12-29T03:34:56;17.63;;;9.10;;
65583;SDS011;62116;43.582;1.470;2022-12-29T03:37:27;19.77;;;8.90;;
65583;SDS011;62116;43.582;1.470;2022-12-29T03:39:56;18.08;;;8.88;;
65583;SDS011;62116;43.582;1.470;2022-12-29T03:42:23;15.20;;;8.40;;
65583;SDS011;62116;43.582;1.470;2022-12-29T03:44:55;18.02;;;8.57;;
65583;SDS011;62116;43.582;1.470;2022-12-29T03:47:22;17.75;;;8.00;;
65583;SDS011;62116;43.582;1.470;2022-12-29T03:49:48;20.80;;;8.85;;
65583;SDS011;62116;43.582;1.470;2022-12-29T03:52:13;21.60;;;8.88;;
65583;SDS011;62116;43.582;1.470;2022-12-29T03:54:39;22.38;;;8.85;;
65583;SDS011;62116;43.582;1.470;2022-12-29T03:57:04;17.63;;;7.90;;
65583;SDS011;62116;43.582;1.470;2022-12-29T03:59:30;21.17;;;8.68;;
65583;SDS011;62116;43.582;1.470;2022-12-29T04:01:55;15.38;;;7.18;;
65583;SDS011;62116;43.582;1.470;2022-12-29T04:04:21;18.65;;;8.38;;
65583;SDS011;62116;43.582;1.470;2022-12-29T04:06:46;16.35;;;7.90;;
65583;SDS011;62116;43.582;1.470;2022-12-29T04:09:12;17.92;;;7.50;;
65583;SDS011;62116;43.582;1.470;2022-12-29T04:11:37;15.45;;;7.13;;
65583;SDS011;62116;43.582;1.470;2022-12-29T04:14:02;20.60;;;7.30;;
65583;SDS011;62116;43.582;1.470;2022-12-29T04:16:28;18.38;;;7.82;;
65583;SDS011;62116;43.582;1.470;2022-12-29T04:18:53;15.85;;;7.30;;
65583;SDS011;62116;43.582;1.470;2022-12-29T04:21:19;18.70;;;7.43;;
65583;SDS011;62116;43.582;1.470;2022-12-29T04:23:44;14.95;;;7.65;;
65583;SDS011;62116;43.582;1.470;2022-12-29T04:26:09;14.63;;;7.65;;
65583;SDS011;62116;43.582;1.470;2022-12-29T04:28:36;19.58;;;7.90;;
65583;SDS011;62116;43.582;1.470;2022-12-29T04:31:02;18.05;;;7.90;;
65583;SDS011;62116;43.582;1.470;2022-12-29T04:33:28;16.08;;;7.43;;
65583;SDS011;62116;43.582;1.470;2022-12-29T04:35:54;18.15;;;7.63;;
65583;SDS011;62116;43.582;1.470;2022-12-29T04:38:20;14.23;;;7.20;;
65583;SDS011;62116;43.582;1.470;2022-12-29T04:40:47;13.57;;;7.18;;
65583;SDS011;62116;43.582;1.470;2022-12-29T04:43:13;15.70;;;7.22;;
65583;SDS011;62116;43.582;1.470;2022-12-29T04:45:39;13.52;;;6.80;;
65583;SDS011;62116;43.582;1.470;2022-12-29T04:48:08;18.55;;;7.50;;
65583;SDS011;62116;43.582;1.470;2022-12-29T04:50:33;16.48;;;6.80;;
65583;SDS011;62116;43.582;1.470;2022-12-29T04:52:58;16.58;;;6.88;;
65583;SDS011;62116;43.582;1.470;2022-12-29T04:55:24;17.65;;;6.75;;
65583;SDS011;62116;43.582;1.470;2022-12-29T04:57:49;12.77;;;6.97;;
65583;SDS011;62116;43.582;1.470;2022-12-29T05:00:15;16.08;;;7.00;;
65583;SDS011;62116;43.582;1.470;2022-12-29T05:02:40;16.08;;;7.00;;
65583;SDS011;62116;43.582;1.470;2022-12-29T05:05:06;16.75;;;6.82;;
65583;SDS011;62116;43.582;1.470;2022-12-29T05:07:31;15.27;;;6.38;;
65583;SDS011;62116;43.582;1.470;2022-12-29T05:09:58;14.52;;;6.72;;
65583;SDS011;62116;43.582;1.470;2022-12-29T05:12:24;13.45;;;6.15;;
65583;SDS011;62116;43.582;1.470;2022-12-29T05:14:49;14.90;;;6.60;;
65583;SDS011;62116;43.582;1.470;2022-12-29T05:17:15;14.75;;;6.80;;
65583;SDS011;62116;43.582;1.470;2022-12-29T05:19:40;15.52;;;6.50;;
65583;SDS011;62116;43.582;1.470;2022-12-29T05:22:05;14.68;;;6.80;;
65583;SDS011;62116;43.582;1.470;2022-12-29T05:24:31;15.82;;;6.60;;
65583;SDS011;62116;43.582;1.470;2022-12-29T05:26:56;12.98;;;6.70;;
65583;SDS011;62116;43.582;1.470;2022-12-29T05:29:22;15.48;;;7.00;;
65583;SDS011;62116;43.582;1.470;2022-12-29T05:31:47;14.50;;;6.95;;
65583;SDS011;62116;43.582;1.470;2022-12-29T05:34:12;18.85;;;6.80;;
65583;SDS011;62116;43.582;1.470;2022-12-29T05:36:38;13.68;;;7.05;;
65583;SDS011;62116;43.582;1.470;2022-12-29T05:39:04;12.40;;;7.07;;
65583;SDS011;62116;43.582;1.470;2022-12-29T05:41:32;13.82;;;7.10;;
65583;SDS011;62116;43.582;1.470;2022-12-29T05:43:58;13.75;;;7.25;;
65583;SDS011;62116;43.582;1.470;2022-12-29T05:46:23;14.13;;;7.00;;
65583;SDS011;62116;43.582;1.470;2022-12-29T05:48:48;14.18;;;7.57;;
65583;SDS011;62116;43.582;1.470;2022-12-29T05:51:14;16.95;;;7.20;;
65583;SDS011;62116;43.582;1.470;2022-12-29T05:53:39;22.20;;;7.40;;
65583;SDS011;62116;43.582;1.470;2022-12-29T05:56:04;18.73;;;7.82;;
65583;SDS011;62116;43.582;1.470;2022-12-29T05:58:30;20.63;;;7.80;;
65583;SDS011;62116;43.582;1.470;2022-12-29T06:00:55;17.17;;;7.80;;
65583;SDS011;62116;43.582;1.470;2022-12-29T06:03:21;17.27;;;8.05;;
65583;SDS011;62116;43.582;1.470;2022-12-29T06:05:46;16.02;;;7.72;;
65583;SDS011;62116;43.582;1.470;2022-12-29T06:08:12;20.73;;;7.35;;
65583;SDS011;62116;43.582;1.470;2022-12-29T06:10:37;19.67;;;8.50;;
65583;SDS011;62116;43.582;1.470;2022-12-29T06:13:03;19.30;;;7.75;;
65583;SDS011;62116;43.582;1.470;2022-12-29T06:15:30;18.05;;;8.00;;
65583;SDS011;62116;43.582;1.470;2022-12-29T06:17:59;21.45;;;8.07;;
65583;SDS011;62116;43.582;1.470;2022-12-29T06:20:24;17.02;;;8.18;;
65583;SDS011;62116;43.582;1.470;2022-12-29T06:22:49;16.35;;;7.72;;
65583;SDS011;62116;43.582;1.470;2022-12-29T06:25:15;16.73;;;7.82;;
65583;SDS011;62116;43.582;1.470;2022-12-29T06:27:40;15.40;;;7.38;;
65583;SDS011;62116;43.582;1.470;2022-12-29T06:30:07;19.35;;;7.95;;
65583;SDS011;62116;43.582;1.470;2022-12-29T06:32:34;17.77;;;8.00;;
65583;SDS011;62116;43.582;1.470;2022-12-29T06:35:00;16.35;;;7.70;;
65583;SDS011;62116;43.582;1.470;2022-12-29T06:37:26;20.40;;;8.23;;
65583;SDS011;62116;43.582;1.470;2022-12-29T06:39:51;21.17;;;7.68;;
65583;SDS011;62116;43.582;1.470;2022-12-29T06:42:16;14.73;;;7.97;;
65583;SDS011;62116;43.582;1.470;2022-12-29T06:44:42;16.88;;;8.18;;
65583;SDS011;62116;43.582;1.470;2022-12-29T06:47:07;17.15;;;7.95;;
65583;SDS011;62116;43.582;1.470;2022-12-29T06:49:33;17.23;;;8.45;;
65583;SDS011;62116;43.582;1.470;2022-12-29T06:51:58;15.75;;;7.75;;
65583;SDS011;62116;43.582;1.470;2022-12-29T06:54:25;20.00;;;7.85;;
65583;SDS011;62116;43.582;1.470;2022-12-29T06:56:51;20.83;;;7.68;;
65583;SDS011;62116;43.582;1.470;2022-12-29T06:59:17;18.10;;;8.07;;
65583;SDS011;62116;43.582;1.470;2022-12-29T07:01:42;16.17;;;7.85;;
65583;SDS011;62116;43.582;1.470;2022-12-29T07:04:07;17.98;;;8.02;;
65583;SDS011;62116;43.582;1.470;2022-12-29T07:06:33;17.73;;;7.78;;
65583;SDS011;62116;43.582;1.470;2022-12-29T07:08:58;17.27;;;7.90;;
65583;SDS011;62116;43.582;1.470;2022-12-29T07:11:24;16.38;;;7.55;;
65583;SDS011;62116;43.582;1.470;2022-12-29T07:13:49;18.17;;;8.13;;
65583;SDS011;62116;43.582;1.470;2022-12-29T07:16:15;19.30;;;7.88;;
65583;SDS011;62116;43.582;1.470;2022-12-29T07:18:40;16.58;;;7.75;;
65583;SDS011;62116;43.582;1.470;2022-12-29T07:21:06;19.77;;;7.60;;
65583;SDS011;62116;43.582;1.470;2022-12-29T07:23:32;20.95;;;8.40;;
65583;SDS011;62116;43.582;1.470;2022-12-29T07:26:08;20.17;;;7.90;;
65583;SDS011;62116;43.582;1.470;2022-12-29T07:28:36;18.42;;;7.95;;
65583;SDS011;62116;43.582;1.470;2022-12-29T07:31:03;18.40;;;7.80;;
65583;SDS011;62116;43.582;1.470;2022-12-29T07:33:28;20.25;;;7.68;;
65583;SDS011;62116;43.582;1.470;2022-12-29T07:35:54;21.40;;;8.23;;
65583;SDS011;62116;43.582;1.470;2022-12-29T07:38:19;17.65;;;7.97;;
65583;SDS011;62116;43.582;1.470;2022-12-29T07:40:45;20.08;;;8.30;;
65583;SDS011;62116;43.582;1.470;2022-12-29T07:43:10;23.55;;;8.30;;
65583;SDS011;62116;43.582;1.470;2022-12-29T07:45:35;20.05;;;8.18;;
65583;SDS011;62116;43.582;1.470;2022-12-29T07:48:01;21.40;;;8.10;;
65583;SDS011;62116;43.582;1.470;2022-12-29T07:50:27;20.00;;;7.93;;
65583;SDS011;62116;43.582;1.470;2022-12-29T07:52:53;20.13;;;8.32;;
65583;SDS011;62116;43.582;1.470;2022-12-29T07:55:18;21.45;;;8.25;;
65583;SDS011;62116;43.582;1.470;2022-12-29T07:57:44;20.15;;;8.05;;
65583;SDS011;62116;43.582;1.470;2022-12-29T08:00:09;17.05;;;7.93;;
65583;SDS011;62116;43.582;1.470;2022-12-29T08:02:35;15.30;;;7.72;;
65583;SDS011;62116;43.582;1.470;2022-12-29T08:05:01;20.15;;;8.07;;
65583;SDS011;62116;43.582;1.470;2022-12-29T08:07:27;15.32;;;7.55;;
65583;SDS011;62116;43.582;1.470;2022-12-29T08:09:52;16.85;;;7.57;;
65583;SDS011;62116;43.582;1.470;2022-12-29T08:12:18;18.38;;;8.15;;
65583;SDS011;62116;43.582;1.470;2022-12-29T08:14:43;19.35;;;7.72;;
65583;SDS011;62116;43.582;1.470;2022-12-29T08:17:09;16.33;;;7.85;;
65583;SDS011;62116;43.582;1.470;2022-12-29T08:19:35;21.02;;;8.25;;
65583;SDS011;62116;43.582;1.470;2022-12-29T08:22:00;19.42;;;7.40;;
65583;SDS011;62116;43.582;1.470;2022-12-29T08:24:26;19.70;;;7.55;;
65583;SDS011;62116;43.582;1.470;2022-12-29T08:26:52;16.73;;;8.18;;
65583;SDS011;62116;43.582;1.470;2022-12-29T08:29:17;20.08;;;7.20;;
65583;SDS011;62116;43.582;1.470;2022-12-29T08:31:42;18.73;;;7.72;;
65583;SDS011;62116;43.582;1.470;2022-12-29T08:34:08;20.05;;;7.53;;
65583;SDS011;62116;43.582;1.470;2022-12-29T08:36:33;16.02;;;7.25;;
65583;SDS011;62116;43.582;1.470;2022-12-29T08:38:59;24.00;;;7.65;;
65583;SDS011;62116;43.582;1.470;2022-12-29T08:41:24;20.80;;;7.93;;
65583;SDS011;62116;43.582;1.470;2022-12-29T08:43:50;15.50;;;7.40;;
65583;SDS011;62116;43.582;1.470;2022-12-29T08:46:15;17.95;;;7.30;;
65583;SDS011;62116;43.582;1.470;2022-12-29T08:48:41;14.48;;;7.15;;
65583;SDS011;62116;43.582;1.470;2022-12-29T08:51:07;20.58;;;6.55;;
65583;SDS011;62116;43.582;1.470;2022-12-29T08:53:32;17.65;;;6.80;;
65583;SDS011;62116;43.582;1.470;2022-12-29T08:55:59;22.35;;;7.35;;
65583;SDS011;62116;43.582;1.470;2022-12-29T08:58:25;19.05;;;6.68;;
65583;SDS011;62116;43.582;1.470;2022-12-29T09:00:52;14.07;;;6.80;;
65583;SDS011;62116;43.582;1.470;2022-12-29T09:03:22;16.70;;;6.88;;
65583;SDS011;62116;43.582;1.470;2022-12-29T09:05:52;20.75;;;6.85;;
65583;SDS011;62116;43.582;1.470;2022-12-29T09:08:19;16.95;;;6.93;;
65583;SDS011;62116;43.582;1.470;2022-12-29T09:10:45;15.48;;;7.05;;
65583;SDS011;62116;43.582;1.470;2022-12-29T09:13:11;16.70;;;6.97;;
65583;SDS011;62116;43.582;1.470;2022-12-29T09:15:37;19.08;;;6.82;;
65583;SDS011;62116;43.582;1.470;2022-12-29T09:18:04;19.85;;;7.30;;
65583;SDS011;62116;43.582;1.470;2022-12-29T09:20:29;23.75;;;6.93;;
65583;SDS011;62116;43.582;1.470;2022-12-29T09:22:55;19.75;;;6.35;;
65583;SDS011;62116;43.582;1.470;2022-12-29T09:25:20;15.60;;;6.93;;
65583;SDS011;62116;43.582;1.470;2022-12-29T09:27:49;20.15;;;6.40;;
65583;SDS011;62116;43.582;1.470;2022-12-29T09:30:17;18.80;;;6.53;;
65583;SDS011;62116;43.582;1.470;2022-12-29T09:32:42;17.92;;;6.53;;
65583;SDS011;62116;43.582;1.470;2022-12-29T09:35:08;16.33;;;6.28;;
65583;SDS011;62116;43.582;1.470;2022-12-29T09:37:33;17.92;;;6.35;;
65583;SDS011;62116;43.582;1.470;2022-12-29T09:39:59;15.93;;;6.40;;
65583;SDS011;62116;43.582;1.470;2022-12-29T09:45:21;14.43;;;5.93;;
65583;SDS011;62116;43.582;1.470;2022-12-29T09:47:50;16.98;;;5.60;;
65583;SDS011;62116;43.582;1.470;2022-12-29T09:55:39;16.77;;;5.78;;
65583;SDS011;62116;43.582;1.470;2022-12-29T09:58:12;13.02;;;6.20;;
65583;SDS011;62116;43.582;1.470;2022-12-29T10:00:49;18.00;;;5.70;;
65583;SDS011;62116;43.582;1.470;2022-12-29T10:03:19;15.75;;;5.50;;
65583;SDS011;62116;43.582;1.470;2022-12-29T10:05:48;17.02;;;5.68;;
65583;SDS011;62116;43.582;1.470;2022-12-29T10:11:23;15.15;;;5.50;;
65583;SDS011;62116;43.582;1.470;2022-12-29T10:24:20;15.00;;;5.18;;
65583;SDS011;62116;43.582;1.470;2022-12-29T10:26:46;13.80;;;5.07;;
65583;SDS011;62116;43.582;1.470;2022-12-29T10:29:17;16.05;;;5.47;;
65583;SDS011;62116;43.582;1.470;2022-12-29T10:34:22;16.50;;;5.05;;
65583;SDS011;62116;43.582;1.470;2022-12-29T10:36:58;15.68;;;5.47;;
65583;SDS011;62116;43.582;1.470;2022-12-29T10:39:35;14.50;;;5.28;;
65583;SDS011;62116;43.582;1.470;2022-12-29T10:45:02;20.50;;;4.90;;
65583;SDS011;62116;43.582;1.470;2022-12-29T10:47:30;10.30;;;4.50;;
65583;SDS011;62116;43.582;1.470;2022-12-29T10:50:00;13.60;;;4.80;;
65583;SDS011;62116;43.582;1.470;2022-12-29T10:52:26;15.60;;;4.80;;
65583;SDS011;62116;43.582;1.470;2022-12-29T10:55:36;10.20;;;4.53;;
65583;SDS011;62116;43.582;1.470;2022-12-29T10:57:44;12.95;;;4.85;;
65583;SDS011;62116;43.582;1.470;2022-12-29T11:00:11;12.27;;;4.45;;
65583;SDS011;62116;43.582;1.470;2022-12-29T11:03:10;16.38;;;4.95;;
65583;SDS011;62116;43.582;1.470;2022-12-29T11:08:25;13.75;;;4.68;;
65583;SDS011;62116;43.582;1.470;2022-12-29T11:11:00;14.15;;;4.60;;
65583;SDS011;62116;43.582;1.470;2022-12-29T11:13:28;11.65;;;4.68;;
65583;SDS011;62116;43.582;1.470;2022-12-29T11:15:55;10.63;;;4.63;;
65583;SDS011;62116;43.582;1.470;2022-12-29T11:21:03;11.00;;;4.63;;
65583;SDS011;62116;43.582;1.470;2022-12-29T11:23:38;17.58;;;4.90;;
65583;SDS011;62116;43.582;1.470;2022-12-29T11:28:30;18.08;;;5.07;;
65583;SDS011;62116;43.582;1.470;2022-12-29T11:31:01;11.27;;;4.40;;
65583;SDS011;62116;43.582;1.470;2022-12-29T11:33:29;10.85;;;4.90;;
65583;SDS011;62116;43.582;1.470;2022-12-29T11:36:02;14.68;;;4.50;;
65583;SDS011;62116;43.582;1.470;2022-12-29T11:38:33;14.25;;;4.82;;
65583;SDS011;62116;43.582;1.470;2022-12-29T11:41:01;10.98;;;4.50;;
65583;SDS011;62116;43.582;1.470;2022-12-29T11:43:32;12.15;;;4.35;;
65583;SDS011;62116;43.582;1.470;2022-12-29T11:46:02;11.98;;;4.07;;
65583;SDS011;62116;43.582;1.470;2022-12-29T11:48:32;15.57;;;4.28;;
65583;SDS011;62116;43.582;1.470;2022-12-29T11:51:03;10.43;;;4.30;;
65583;SDS011;62116;43.582;1.470;2022-12-29T11:56:04;13.13;;;4.18;;
65583;SDS011;62116;43.582;1.470;2022-12-29T11:58:33;12.57;;;3.88;;
65583;SDS011;62116;43.582;1.470;2022-12-29T12:01:17;9.32;;;3.75;;
65583;SDS011;62116;43.582;1.470;2022-12-29T12:06:39;14.85;;;4.18;;
65583;SDS011;62116;43.582;1.470;2022-12-29T12:09:14;14.38;;;4.65;;
65583;SDS011;62116;43.582;1.470;2022-12-29T12:11:44;10.90;;;4.10;;
65583;SDS011;62116;43.582;1.470;2022-12-29T12:22:22;10.40;;;3.90;;
65583;SDS011;62116;43.582;1.470;2022-12-29T12:25:21;17.13;;;4.47;;
65583;SDS011;62116;43.582;1.470;2022-12-29T12:27:52;9.45;;;4.53;;
65583;SDS011;62116;43.582;1.470;2022-12-29T12:30:21;16.13;;;4.75;;
65583;SDS011;62116;43.582;1.470;2022-12-29T12:56:38;10.80;;;4.38;;
65583;SDS011;62116;43.582;1.470;2022-12-29T12:59:25;10.52;;;4.07;;
65583;SDS011;62116;43.582;1.470;2022-12-29T13:04:48;12.45;;;4.60;;
65583;SDS011;62116;43.582;1.470;2022-12-29T13:19:25;12.55;;;4.70;;
65583;SDS011;62116;43.582;1.470;2022-12-29T13:26:50;15.45;;;4.50;;
65583;SDS011;62116;43.582;1.470;2022-12-29T13:31:54;13.32;;;4.35;;
65583;SDS011;62116;43.582;1.470;2022-12-29T13:37:13;9.23;;;4.00;;
65583;SDS011;62116;43.582;1.470;2022-12-29T13:42:16;11.25;;;4.38;;
65583;SDS011;62116;43.582;1.470;2022-12-29T13:44:45;9.75;;;4.50;;
65583;SDS011;62116;43.582;1.470;2022-12-29T13:49:56;12.57;;;4.18;;
65583;SDS011;62116;43.582;1.470;2022-12-29T14:00:54;11.80;;;4.35;;
65583;SDS011;62116;43.582;1.470;2022-12-29T14:06:18;13.10;;;4.65;;
65583;SDS011;62116;43.582;1.470;2022-12-29T14:08:45;10.23;;;4.20;;
65583;SDS011;62116;43.582;1.470;2022-12-29T14:11:12;9.75;;;4.25;;
65583;SDS011;62116;43.582;1.470;2022-12-29T14:13:42;10.20;;;4.20;;
65583;SDS011;62116;43.582;1.470;2022-12-29T14:16:29;12.45;;;4.25;;
65583;SDS011;62116;43.582;1.470;2022-12-29T14:19:09;9.98;;;4.28;;
65583;SDS011;62116;43.582;1.470;2022-12-29T14:21:38;10.02;;;4.40;;
65583;SDS011;62116;43.582;1.470;2022-12-29T14:34:58;11.10;;;4.10;;
65583;SDS011;62116;43.582;1.470;2022-12-29T14:37:29;13.10;;;4.40;;
65583;SDS011;62116;43.582;1.470;2022-12-29T14:42:47;10.43;;;4.28;;
65583;SDS011;62116;43.582;1.470;2022-12-29T14:47:40;11.77;;;4.60;;
65583;SDS011;62116;43.582;1.470;2022-12-29T14:55:29;13.18;;;4.80;;
65583;SDS011;62116;43.582;1.470;2022-12-29T14:58:04;17.58;;;4.80;;
65583;SDS011;62116;43.582;1.470;2022-12-29T15:00:34;16.48;;;5.18;;
65583;SDS011;62116;43.582;1.470;2022-12-29T15:03:10;14.07;;;4.50;;
65583;SDS011;62116;43.582;1.470;2022-12-29T15:05:41;18.23;;;5.07;;
65583;SDS011;62116;43.582;1.470;2022-12-29T15:08:08;10.25;;;4.45;;
65583;SDS011;62116;43.582;1.470;2022-12-29T15:10:40;12.60;;;4.90;;
65583;SDS011;62116;43.582;1.470;2022-12-29T15:13:18;13.05;;;5.15;;
65583;SDS011;62116;43.582;1.470;2022-12-29T15:15:47;12.90;;;4.63;;
65583;SDS011;62116;43.582;1.470;2022-12-29T15:18:14;16.60;;;5.05;;
65583;SDS011;62116;43.582;1.470;2022-12-29T15:20:39;14.70;;;5.13;;
65583;SDS011;62116;43.582;1.470;2022-12-29T15:23:10;16.15;;;5.25;;
65583;SDS011;62116;43.582;1.470;2022-12-29T15:25:50;15.55;;;5.03;;
65583;SDS011;62116;43.582;1.470;2022-12-29T15:28:17;14.02;;;5.35;;
65583;SDS011;62116;43.582;1.470;2022-12-29T15:33:19;12.43;;;5.10;;
65583;SDS011;62116;43.582;1.470;2022-12-29T15:35:49;12.50;;;5.15;;
65583;SDS011;62116;43.582;1.470;2022-12-29T15:38:20;15.00;;;5.27;;
65583;SDS011;62116;43.582;1.470;2022-12-29T15:40:50;15.40;;;4.85;;
65583;SDS011;62116;43.582;1.470;2022-12-29T15:45:50;13.05;;;5.20;;
65583;SDS011;62116;43.582;1.470;2022-12-29T15:48:20;14.10;;;5.28;;
65583;SDS011;62116;43.582;1.470;2022-12-29T15:50:48;13.15;;;5.22;;
65583;SDS011;62116;43.582;1.470;2022-12-29T15:53:32;12.77;;;5.13;;
65583;SDS011;62116;43.582;1.470;2022-12-29T15:56:06;13.38;;;5.70;;
65583;SDS011;62116;43.582;1.470;2022-12-29T15:58:44;16.98;;;5.50;;
65583;SDS011;62116;43.582;1.470;2022-12-29T16:01:18;14.18;;;5.40;;
65583;SDS011;62116;43.582;1.470;2022-12-29T16:03:50;13.02;;;5.10;;
65583;SDS011;62116;43.582;1.470;2022-12-29T16:09:05;15.25;;;6.20;;
65583;SDS011;62116;43.582;1.470;2022-12-29T16:11:40;18.52;;;6.57;;
65583;SDS011;62116;43.582;1.470;2022-12-29T16:14:13;15.80;;;6.30;;
65583;SDS011;62116;43.582;1.470;2022-12-29T16:16:42;14.73;;;6.70;;
65583;SDS011;62116;43.582;1.470;2022-12-29T16:19:14;14.60;;;6.50;;
65583;SDS011;62116;43.582;1.470;2022-12-29T16:21:44;16.50;;;6.60;;
65583;SDS011;62116;43.582;1.470;2022-12-29T16:24:14;17.77;;;7.10;;
65583;SDS011;62116;43.582;1.470;2022-12-29T16:27:29;14.88;;;6.53;;
65583;SDS011;62116;43.582;1.470;2022-12-29T16:29:33;15.48;;;6.75;;
65583;SDS011;62116;43.582;1.470;2022-12-29T16:31:59;14.60;;;6.50;;
65583;SDS011;62116;43.582;1.470;2022-12-29T16:37:39;19.17;;;6.82;;
65583;SDS011;62116;43.582;1.470;2022-12-29T16:39:55;15.65;;;6.95;;
65583;SDS011;62116;43.582;1.470;2022-12-29T16:42:34;18.05;;;6.97;;
65583;SDS011;62116;43.582;1.470;2022-12-29T16:50:30;17.92;;;7.90;;
65583;SDS011;62116;43.582;1.470;2022-12-29T16:52:57;20.10;;;8.63;;
65583;SDS011;62116;43.582;1.470;2022-12-29T16:55:23;23.92;;;9.80;;
65583;SDS011;62116;43.582;1.470;2022-12-29T16:57:49;17.95;;;8.20;;
65583;SDS011;62116;43.582;1.470;2022-12-29T17:00:22;17.23;;;8.45;;
65583;SDS011;62116;43.582;1.470;2022-12-29T17:02:49;19.05;;;7.97;;
65583;SDS011;62116;43.582;1.470;2022-12-29T17:05:17;16.50;;;8.32;;
65583;SDS011;62116;43.582;1.470;2022-12-29T17:07:43;19.88;;;9.00;;
65583;SDS011;62116;43.582;1.470;2022-12-29T17:10:09;15.30;;;7.85;;
65583;SDS011;62116;43.582;1.470;2022-12-29T17:12:37;20.75;;;8.68;;
65583;SDS011;62116;43.582;1.470;2022-12-29T17:17:51;21.20;;;9.43;;
65583;SDS011;62116;43.582;1.470;2022-12-29T17:22:48;18.50;;;8.68;;
65583;SDS011;62116;43.582;1.470;2022-12-29T17:25:18;15.20;;;6.53;;
65583;SDS011;62116;43.582;1.470;2022-12-29T17:27:46;10.70;;;6.10;;
65583;SDS011;62116;43.582;1.470;2022-12-29T17:30:15;10.25;;;5.03;;
65583;SDS011;62116;43.582;1.470;2022-12-29T17:32:45;9.98;;;3.85;;
65583;SDS011;62116;43.582;1.470;2022-12-29T17:35:16;8.43;;;3.15;;
65583;SDS011;62116;43.582;1.470;2022-12-29T17:37:42;4.85;;;2.83;;
65583;SDS011;62116;43.582;1.470;2022-12-29T17:40:13;6.05;;;2.95;;
65583;SDS011;62116;43.582;1.470;2022-12-29T17:42:44;5.70;;;3.28;;
65583;SDS011;62116;43.582;1.470;2022-12-29T17:45:12;9.10;;;3.15;;
65583;SDS011;62116;43.582;1.470;2022-12-29T17:47:39;6.35;;;3.40;;
65583;SDS011;62116;43.582;1.470;2022-12-29T17:50:05;5.30;;;3.10;;
65583;SDS011;62116;43.582;1.470;2022-12-29T17:52:34;7.15;;;3.30;;
65583;SDS011;62116;43.582;1.470;2022-12-29T17:54:59;5.60;;;3.33;;
65583;SDS011;62116;43.582;1.470;2022-12-29T17:57:25;8.25;;;3.40;;
65583;SDS011;62116;43.582;1.470;2022-12-29T17:59:50;6.18;;;3.10;;
65583;SDS011;62116;43.582;1.470;2022-12-29T18:02:23;6.75;;;3.15;;
65583;SDS011;62116;43.582;1.470;2022-12-29T18:04:51;7.55;;;3.50;;